createdAt,value
2023-05-07T00:00:25.620Z,42.79
2023-05-07T00:01:00.942Z,42.89
2023-05-07T00:01:36.292Z,42.41
2023-05-07T00:02:08.768Z,42.79
2023-05-07T00:02:44.171Z,42.79
2023-05-07T00:03:16.717Z,42.92
2023-05-07T00:03:49.276Z,42.63
2023-05-07T00:04:24.513Z,42.41
2023-05-07T00:04:57.344Z,42.65
2023-05-07T00:05:30.050Z,42.66
2023-05-07T00:06:05.106Z,42.69
2023-05-07T00:06:37.825Z,42.72
2023-05-07T00:07:10.270Z,42.98
2023-05-07T00:07:45.182Z,42.66
2023-05-07T00:08:17.690Z,42.52
2023-05-07T00:08:50.040Z,42.96
2023-05-07T00:09:25.005Z,42.64
2023-05-07T00:09:57.323Z,42.76
2023-05-07T00:10:29.646Z,42.94
2023-05-07T00:11:04.595Z,42.65
2023-05-07T00:11:37.332Z,42.73
2023-05-07T00:12:09.829Z,43.01
2023-05-07T00:12:44.999Z,42.78
2023-05-07T00:13:17.390Z,42.67
2023-05-07T00:13:49.892Z,42.63
2023-05-07T00:14:24.853Z,42.75
2023-05-07T00:14:57.169Z,42.63
2023-05-07T00:15:29.551Z,42.82
2023-05-07T00:16:04.717Z,42.80
2023-05-07T00:16:39.733Z,43.03
2023-05-07T00:17:12.220Z,42.87
2023-05-07T00:17:47.311Z,42.59
2023-05-07T00:18:22.282Z,42.81
2023-05-07T00:18:54.803Z,42.89
2023-05-07T00:19:29.894Z,42.85
2023-05-07T00:20:02.257Z,42.70
2023-05-07T00:20:36.123Z,42.94
2023-05-07T00:21:08.626Z,42.88
2023-05-07T00:21:43.546Z,42.74
2023-05-07T00:22:15.969Z,42.56
2023-05-07T00:22:48.278Z,42.90
2023-05-07T00:23:23.220Z,42.78
2023-05-07T00:23:55.611Z,42.83
2023-05-07T00:24:27.914Z,42.99
2023-05-07T00:25:01.441Z,42.95
2023-05-07T00:25:36.602Z,42.80
2023-05-07T00:26:08.980Z,42.55
2023-05-07T00:26:41.344Z,42.60
2023-05-07T00:27:13.689Z,42.88
2023-05-07T00:27:48.655Z,42.79
2023-05-07T00:28:21.099Z,42.53
2023-05-07T00:28:53.466Z,43.10
2023-05-07T00:29:28.398Z,42.88
2023-05-07T00:30:00.797Z,42.67
2023-05-07T00:30:33.341Z,42.61
2023-05-07T00:31:08.367Z,42.84
2023-05-07T00:31:43.369Z,42.73
2023-05-07T00:32:16.210Z,42.98
2023-05-07T00:32:52.057Z,42.76
2023-05-07T00:33:24.416Z,42.51
2023-05-07T00:33:56.740Z,42.84
2023-05-07T00:34:31.685Z,42.69
2023-05-07T00:35:04.414Z,42.98
2023-05-07T00:35:36.732Z,42.61
2023-05-07T00:36:09.145Z,42.79
2023-05-07T00:36:44.061Z,42.96
2023-05-07T00:37:16.355Z,42.75
2023-05-07T00:37:49.628Z,42.50
2023-05-07T00:38:24.713Z,42.50
2023-05-07T00:38:58.794Z,42.73
2023-05-07T00:39:31.091Z,42.90
2023-05-07T00:40:08.485Z,42.89
2023-05-07T00:40:41.013Z,42.41
2023-05-07T00:41:13.356Z,42.50
2023-05-07T00:41:48.486Z,42.89
2023-05-07T00:42:21.048Z,42.67
2023-05-07T00:42:59.241Z,43.03
2023-05-07T00:43:34.389Z,42.82
2023-05-07T00:44:06.792Z,42.96
2023-05-07T00:44:39.159Z,42.93
2023-05-07T00:45:12.033Z,42.94
2023-05-07T00:45:46.988Z,42.89
2023-05-07T00:46:19.929Z,42.72
2023-05-07T00:46:55.306Z,42.51
2023-05-07T00:47:30.427Z,42.84
2023-05-07T00:48:04.678Z,42.93
2023-05-07T00:48:37.061Z,42.71
2023-05-07T00:49:12.034Z,42.65
2023-05-07T00:49:45.614Z,42.65
2023-05-07T00:50:18.351Z,42.69
2023-05-07T00:50:53.297Z,42.75
2023-05-07T00:51:27.998Z,42.62
2023-05-07T00:52:01.879Z,42.46
2023-05-07T00:52:36.931Z,42.48
2023-05-07T00:53:09.358Z,42.70
2023-05-07T00:53:44.321Z,42.64
2023-05-07T00:54:16.757Z,42.90
2023-05-07T00:54:49.273Z,42.83
2023-05-07T00:55:24.307Z,42.90
2023-05-07T00:55:57.217Z,42.79
2023-05-07T00:56:29.697Z,42.81
2023-05-07T00:57:06.510Z,42.78
2023-05-07T00:57:40.579Z,42.94
2023-05-07T00:58:12.964Z,42.44
2023-05-07T00:58:48.218Z,42.52
2023-05-07T00:59:20.759Z,42.86
2023-05-07T00:59:53.449Z,42.82
2023-05-07T01:00:28.660Z,42.64
2023-05-07T01:01:01.783Z,42.79
2023-05-07T01:01:34.229Z,42.69
2023-05-07T01:02:12.482Z,42.52
2023-05-07T01:02:45.866Z,43.06
2023-05-07T01:03:21.140Z,42.87
2023-05-07T01:03:54.549Z,42.59
2023-05-07T01:04:28.212Z,42.38
2023-05-07T01:05:04.610Z,42.63
2023-05-07T01:05:37.743Z,42.62
2023-05-07T01:06:14.205Z,42.73
2023-05-07T01:06:47.293Z,42.70
2023-05-07T01:07:20.374Z,42.74
2023-05-07T01:07:56.183Z,42.75
2023-05-07T01:08:30.679Z,42.53
2023-05-07T01:09:05.820Z,42.57
2023-05-07T01:09:38.390Z,42.60
2023-05-07T01:10:11.862Z,42.53
2023-05-07T01:10:47.114Z,42.77
2023-05-07T01:11:21.476Z,42.85
2023-05-07T01:11:54.092Z,42.43
2023-05-07T01:12:29.692Z,42.60
2023-05-07T01:13:02.542Z,42.87
2023-05-07T01:13:35.253Z,42.66
2023-05-07T01:14:11.617Z,42.75
2023-05-07T01:14:43.960Z,42.42
2023-05-07T01:15:16.795Z,42.87
2023-05-07T01:15:51.748Z,42.48
2023-05-07T01:16:24.113Z,42.46
2023-05-07T01:16:56.545Z,42.45
2023-05-07T01:17:37.328Z,42.70
2023-05-07T01:18:10.348Z,42.72
2023-05-07T01:18:44.027Z,42.68
2023-05-07T01:19:21.197Z,42.36
2023-05-07T01:19:54.431Z,42.57
2023-05-07T01:20:27.313Z,42.46
2023-05-07T01:21:05.377Z,42.55
2023-05-07T01:21:38.598Z,42.36
2023-05-07T01:22:12.938Z,42.79
2023-05-07T01:23:01.698Z,42.63
2023-05-07T01:23:35.911Z,42.69
2023-05-07T01:24:08.462Z,42.48
2023-05-07T01:24:41.214Z,42.64
2023-05-07T01:25:17.553Z,42.40
2023-05-07T01:25:54.434Z,42.74
2023-05-07T01:26:28.914Z,42.65
2023-05-07T01:27:05.308Z,42.43
2023-05-07T01:27:39.392Z,42.71
2023-05-07T01:28:11.728Z,42.63
2023-05-07T01:28:49.352Z,42.93
2023-05-07T01:29:21.817Z,42.62
2023-05-07T01:29:54.769Z,42.38
2023-05-07T01:30:29.800Z,42.41
2023-05-07T01:31:04.706Z,42.47
2023-05-07T01:31:38.236Z,42.37
2023-05-07T01:32:13.539Z,42.67
2023-05-07T01:32:49.898Z,42.50
2023-05-07T01:33:23.322Z,42.68
2023-05-07T01:33:58.786Z,42.97
2023-05-07T01:34:33.062Z,42.75
2023-05-07T01:35:07.520Z,42.55
2023-05-07T01:35:45.928Z,42.82
2023-05-07T01:36:19.325Z,42.46
2023-05-07T01:36:51.849Z,42.77
2023-05-07T01:37:24.435Z,42.87
2023-05-07T01:38:01.995Z,42.88
2023-05-07T01:38:34.524Z,42.55
2023-05-07T01:39:07.592Z,42.78
2023-05-07T01:39:43.890Z,42.93
2023-05-07T01:40:16.355Z,42.77
2023-05-07T01:40:48.926Z,42.83
2023-05-07T01:41:23.947Z,42.47
2023-05-07T01:41:57.344Z,43.06
2023-05-07T01:42:33.167Z,42.50
2023-05-07T01:43:09.384Z,42.93
2023-05-07T01:43:43.182Z,42.71
2023-05-07T01:44:16.259Z,42.77
2023-05-07T01:44:51.367Z,43.01
2023-05-07T01:45:23.850Z,42.69
2023-05-07T01:45:56.974Z,42.77
2023-05-07T01:46:32.363Z,42.70
2023-05-07T01:47:05.113Z,43.01
2023-05-07T01:47:38.035Z,42.95
2023-05-07T01:48:14.321Z,42.58
2023-05-07T01:48:47.345Z,42.68
2023-05-07T01:49:19.825Z,42.50
2023-05-07T01:49:52.306Z,42.70
2023-05-07T01:50:27.555Z,42.75
2023-05-07T01:51:00.319Z,42.72
2023-05-07T01:51:32.794Z,42.41
2023-05-07T01:52:08.143Z,42.41
2023-05-07T01:52:40.538Z,42.78
2023-05-07T01:53:15.531Z,42.63
2023-05-07T01:53:51.978Z,42.42
2023-05-07T01:54:28.935Z,42.70
2023-05-07T01:55:02.261Z,42.63
2023-05-07T01:55:38.034Z,42.60
2023-05-07T01:56:10.601Z,42.43
2023-05-07T01:56:49.263Z,42.91
2023-05-07T01:57:21.997Z,42.40
2023-05-07T01:57:54.336Z,42.67
2023-05-07T01:58:29.309Z,42.81
2023-05-07T01:59:02.006Z,42.63
2023-05-07T01:59:34.848Z,42.89
2023-05-07T02:00:11.972Z,42.77
2023-05-07T02:00:50.970Z,42.71
2023-05-07T02:01:23.429Z,42.45
2023-05-07T02:01:58.723Z,42.58
2023-05-07T02:02:34.358Z,42.66
2023-05-07T02:03:07.220Z,42.36
2023-05-07T02:03:59.874Z,42.55
2023-05-07T02:04:36.388Z,42.67
2023-05-07T02:05:09.998Z,42.78
2023-05-07T02:05:48.497Z,42.81
2023-05-07T02:06:28.493Z,42.54
2023-05-07T02:07:05.701Z,42.82
2023-05-07T02:07:40.740Z,42.66
2023-05-07T02:08:16.542Z,42.61
2023-05-07T02:08:49.392Z,42.35
2023-05-07T02:09:25.385Z,42.76
2023-05-07T02:09:58.070Z,42.60
2023-05-07T02:10:30.523Z,42.30
2023-05-07T02:11:05.837Z,42.63
2023-05-07T02:11:39.268Z,42.29
2023-05-07T02:12:11.581Z,42.35
2023-05-07T02:12:46.901Z,42.81
2023-05-07T02:13:21.150Z,42.45
2023-05-07T02:13:54.253Z,42.83
2023-05-07T02:14:27.294Z,42.74
2023-05-07T02:15:02.360Z,42.33
2023-05-07T02:15:34.846Z,42.73
2023-05-07T02:16:08.671Z,42.60
2023-05-07T02:16:43.782Z,42.53
2023-05-07T02:17:18.534Z,42.66
2023-05-07T02:18:01.266Z,42.82
2023-05-07T02:18:37.013Z,42.67
2023-05-07T02:19:09.508Z,42.32
2023-05-07T02:19:42.225Z,42.34
2023-05-07T02:20:17.187Z,42.74
2023-05-07T02:20:49.582Z,42.41
2023-05-07T02:21:21.915Z,42.38
2023-05-07T02:21:56.961Z,42.71
2023-05-07T02:22:29.368Z,42.43
2023-05-07T02:23:01.725Z,42.35
2023-05-07T02:23:41.000Z,42.48
2023-05-07T02:24:13.350Z,42.53
2023-05-07T02:24:45.872Z,42.79
2023-05-07T02:25:20.974Z,42.60
2023-05-07T02:25:53.373Z,42.62
2023-05-07T02:26:26.925Z,42.60
2023-05-07T02:27:02.410Z,42.60
2023-05-07T02:27:34.808Z,42.83
2023-05-07T02:28:07.135Z,42.58
2023-05-07T02:29:01.649Z,42.70
2023-05-07T02:29:34.053Z,42.69
2023-05-07T02:30:08.030Z,42.62
2023-05-07T02:30:41.192Z,42.38
2023-05-07T02:31:16.133Z,42.83
2023-05-07T02:31:51.933Z,42.37
2023-05-07T02:32:24.481Z,42.82
2023-05-07T02:32:59.497Z,42.57
2023-05-07T02:33:32.136Z,42.68
2023-05-07T02:34:07.846Z,42.80
2023-05-07T02:34:40.184Z,42.72
2023-05-07T02:35:12.589Z,42.80
2023-05-07T02:35:44.970Z,42.54
2023-05-07T02:36:22.069Z,42.89
2023-05-07T02:37:06.798Z,42.61
2023-05-07T02:37:39.144Z,42.65
2023-05-07T02:38:12.013Z,42.38
2023-05-07T02:38:50.646Z,42.65
2023-05-07T02:39:23.001Z,42.65
2023-05-07T02:39:55.301Z,42.32
2023-05-07T02:40:27.640Z,42.55
2023-05-07T02:41:02.585Z,42.65
2023-05-07T02:41:34.910Z,42.82
2023-05-07T02:42:07.260Z,42.94
2023-05-07T02:42:42.241Z,42.58
2023-05-07T02:43:15.068Z,42.39
2023-05-07T02:43:50.399Z,42.53
2023-05-07T02:44:26.116Z,42.61
2023-05-07T02:44:58.652Z,42.66
2023-05-07T02:45:31.319Z,42.57
2023-05-07T02:46:07.499Z,42.46
2023-05-07T02:46:42.738Z,42.71
2023-05-07T02:47:17.734Z,42.43
2023-05-07T02:47:51.305Z,42.64
2023-05-07T02:48:26.307Z,42.67
2023-05-07T02:48:58.660Z,42.76
2023-05-07T02:49:31.060Z,42.65
2023-05-07T02:50:04.038Z,42.86
2023-05-07T02:50:39.118Z,42.88
2023-05-07T02:51:11.444Z,42.73
2023-05-07T02:51:46.443Z,42.60
2023-05-07T02:52:25.293Z,42.85
2023-05-07T02:53:00.314Z,42.47
2023-05-07T02:53:32.880Z,42.65
2023-05-07T02:54:08.084Z,42.82
2023-05-07T02:54:43.089Z,42.46
2023-05-07T02:55:15.664Z,42.84
2023-05-07T02:55:48.049Z,42.48
2023-05-07T02:56:23.008Z,42.78
2023-05-07T02:56:55.472Z,42.67
2023-05-07T02:57:27.789Z,42.65
2023-05-07T02:58:00.626Z,42.71
2023-05-07T02:58:35.871Z,42.62
2023-05-07T02:59:09.535Z,42.48
2023-05-07T02:59:45.933Z,42.72
2023-05-07T03:00:24.433Z,42.94
2023-05-07T03:01:17.078Z,42.89
2023-05-07T03:02:04.930Z,42.85
2023-05-07T03:02:39.892Z,42.36
2023-05-07T03:03:13.433Z,42.60
2023-05-07T03:03:45.960Z,42.84
2023-05-07T03:04:21.669Z,42.41
2023-05-07T03:04:54.425Z,42.40
2023-05-07T03:05:26.816Z,42.65
2023-05-07T03:06:01.832Z,42.60
2023-05-07T03:06:34.158Z,42.43
2023-05-07T03:07:06.515Z,42.51
2023-05-07T03:07:42.197Z,42.46
2023-05-07T03:08:15.606Z,42.44
2023-05-07T03:08:48.018Z,42.82
2023-05-07T03:09:25.734Z,42.69
2023-05-07T03:09:58.096Z,42.68
2023-05-07T03:10:30.406Z,42.65
2023-05-07T03:11:05.353Z,42.55
2023-05-07T03:11:37.934Z,42.68
2023-05-07T03:12:10.252Z,42.40
2023-05-07T03:12:45.475Z,42.36
2023-05-07T03:13:21.859Z,42.84
2023-05-07T03:13:54.789Z,42.58
2023-05-07T03:14:30.769Z,42.59
2023-05-07T03:15:03.325Z,42.50
2023-05-07T03:15:35.853Z,42.58
2023-05-07T03:16:11.163Z,42.36
2023-05-07T03:16:43.595Z,42.82
2023-05-07T03:17:17.344Z,42.79
2023-05-07T03:17:52.412Z,42.44
2023-05-07T03:18:25.661Z,42.79
2023-05-07T03:18:58.071Z,42.50
2023-05-07T03:19:33.774Z,42.60
2023-05-07T03:20:08.368Z,42.58
2023-05-07T03:20:42.008Z,42.58
2023-05-07T03:21:17.079Z,42.44
2023-05-07T03:21:49.478Z,42.59
2023-05-07T03:22:21.849Z,42.55
2023-05-07T03:22:56.785Z,42.63
2023-05-07T03:23:29.105Z,42.44
2023-05-07T03:24:01.795Z,42.31
2023-05-07T03:24:36.794Z,42.52
2023-05-07T03:25:15.287Z,42.53
2023-05-07T03:25:47.658Z,42.70
2023-05-07T03:26:19.989Z,42.60
2023-05-07T03:26:54.962Z,42.58
2023-05-07T03:27:27.570Z,42.67
2023-05-07T03:28:00.659Z,42.60
2023-05-07T03:28:43.405Z,42.50
2023-05-07T03:29:18.864Z,42.43
2023-05-07T03:29:51.181Z,42.34
2023-05-07T03:30:26.483Z,42.26
2023-05-07T03:30:58.933Z,42.53
2023-05-07T03:31:31.505Z,42.51
2023-05-07T03:32:07.104Z,42.74
2023-05-07T03:32:42.341Z,42.30
2023-05-07T03:33:18.696Z,42.29
2023-05-07T03:33:52.953Z,42.38
2023-05-07T03:34:27.898Z,42.55
2023-05-07T03:35:00.268Z,42.79
2023-05-07T03:35:32.821Z,42.39
2023-05-07T03:36:08.670Z,42.51
2023-05-07T03:36:41.150Z,42.33
2023-05-07T03:37:16.284Z,42.31
2023-05-07T03:37:51.854Z,42.63
2023-05-07T03:38:24.873Z,42.57
2023-05-07T03:38:58.373Z,42.60
2023-05-07T03:39:40.989Z,42.70
2023-05-07T03:40:14.381Z,42.63
2023-05-07T03:40:54.438Z,42.75
2023-05-07T03:41:30.932Z,42.49
2023-05-07T03:42:03.872Z,42.56
2023-05-07T03:42:37.907Z,42.50
2023-05-07T03:43:12.842Z,42.62
2023-05-07T03:43:50.358Z,42.62
2023-05-07T03:44:23.148Z,42.43
2023-05-07T03:45:00.107Z,42.55
2023-05-07T03:45:32.698Z,42.75
2023-05-07T03:46:14.255Z,42.51
2023-05-07T03:46:50.880Z,42.63
2023-05-07T03:47:23.355Z,42.48
2023-05-07T03:47:56.190Z,42.54
2023-05-07T03:48:31.279Z,42.43
2023-05-07T03:49:05.225Z,42.66
2023-05-07T03:49:38.185Z,42.71
2023-05-07T03:50:14.311Z,42.56
2023-05-07T03:50:47.582Z,42.42
2023-05-07T03:51:21.017Z,42.24
2023-05-07T03:51:56.877Z,42.31
2023-05-07T03:52:29.788Z,42.60
2023-05-07T03:53:05.634Z,42.46
2023-05-07T03:53:45.511Z,42.73
2023-05-07T03:54:18.078Z,42.37
2023-05-07T03:54:55.572Z,42.58
2023-05-07T03:55:30.782Z,42.36
2023-05-07T03:56:06.151Z,42.51
2023-05-07T03:56:42.366Z,42.29
2023-05-07T03:57:17.334Z,42.55
2023-05-07T03:57:49.834Z,42.49
2023-05-07T03:58:22.369Z,42.45
2023-05-07T03:58:58.387Z,42.43
2023-05-07T03:59:30.804Z,42.63
2023-05-07T04:00:05.734Z,42.58
2023-05-07T04:00:44.461Z,42.49
2023-05-07T04:01:31.339Z,42.47
2023-05-07T04:02:06.369Z,42.54
2023-05-07T04:02:39.802Z,42.74
2023-05-07T04:03:12.492Z,42.45
2023-05-07T04:03:47.593Z,42.49
2023-05-07T04:04:20.022Z,42.59
2023-05-07T04:04:52.434Z,42.42
2023-05-07T04:05:28.165Z,42.56
2023-05-07T04:06:04.840Z,42.48
2023-05-07T04:06:42.637Z,42.58
2023-05-07T04:07:14.993Z,42.51
2023-05-07T04:07:51.881Z,42.77
2023-05-07T04:08:32.711Z,42.48
2023-05-07T04:09:05.041Z,42.39
2023-05-07T04:09:37.612Z,42.26
2023-05-07T04:10:15.383Z,42.55
2023-05-07T04:10:50.251Z,42.58
2023-05-07T04:11:22.606Z,42.39
2023-05-07T04:11:58.839Z,42.67
2023-05-07T04:12:31.211Z,42.77
2023-05-07T04:13:04.701Z,42.24
2023-05-07T04:13:39.851Z,42.33
2023-05-07T04:14:14.100Z,42.26
2023-05-07T04:14:46.608Z,42.60
2023-05-07T04:15:22.286Z,42.33
2023-05-07T04:15:56.286Z,42.47
2023-05-07T04:16:29.196Z,42.61
2023-05-07T04:17:04.253Z,42.60
2023-05-07T04:17:36.769Z,42.48
2023-05-07T04:18:09.176Z,42.43
2023-05-07T04:18:45.409Z,42.55
2023-05-07T04:19:17.892Z,42.66
2023-05-07T04:19:52.321Z,42.58
2023-05-07T04:20:27.622Z,42.44
2023-05-07T04:21:05.805Z,42.68
2023-05-07T04:21:42.354Z,42.43
2023-05-07T04:22:15.046Z,42.53
2023-05-07T04:22:47.391Z,42.46
2023-05-07T04:23:23.600Z,42.47
2023-05-07T04:23:56.128Z,42.37
2023-05-07T04:24:31.057Z,42.70
2023-05-07T04:25:04.048Z,42.37
2023-05-07T04:25:39.517Z,42.53
2023-05-07T04:26:25.560Z,42.37
2023-05-07T04:27:00.038Z,42.60
2023-05-07T04:27:33.650Z,42.53
2023-05-07T04:28:08.698Z,42.66
2023-05-07T04:28:41.986Z,42.63
2023-05-07T04:29:15.309Z,42.45
2023-05-07T04:29:50.783Z,42.53
2023-05-07T04:30:24.496Z,42.57
2023-05-07T04:30:56.895Z,42.59
2023-05-07T04:31:33.051Z,42.29
2023-05-07T04:32:06.399Z,42.48
2023-05-07T04:32:38.876Z,42.25
2023-05-07T04:33:12.878Z,42.50
2023-05-07T04:33:51.824Z,42.72
2023-05-07T04:34:25.699Z,42.21
2023-05-07T04:34:58.455Z,42.63
2023-05-07T04:35:33.410Z,42.46
2023-05-07T04:36:06.807Z,42.62
2023-05-07T04:36:47.427Z,42.54
2023-05-07T04:37:19.956Z,42.37
2023-05-07T04:37:52.531Z,42.24
2023-05-07T04:38:24.906Z,42.73
2023-05-07T04:39:01.911Z,42.68
2023-05-07T04:39:36.473Z,42.44
2023-05-07T04:40:10.113Z,42.40
2023-05-07T04:40:48.138Z,42.43
2023-05-07T04:41:24.743Z,42.52
2023-05-07T04:41:59.750Z,42.36
2023-05-07T04:42:32.418Z,42.26
2023-05-07T04:43:06.983Z,42.43
2023-05-07T04:43:48.065Z,42.53
2023-05-07T04:44:22.084Z,42.22
2023-05-07T04:44:55.291Z,42.35
2023-05-07T04:45:31.967Z,42.70
2023-05-07T04:46:04.970Z,42.47
2023-05-07T04:46:37.441Z,42.57
2023-05-07T04:47:12.485Z,42.46
2023-05-07T04:47:45.342Z,42.52
2023-05-07T04:48:20.308Z,42.37
2023-05-07T04:48:56.814Z,42.38
2023-05-07T04:49:29.537Z,42.53
2023-05-07T04:50:03.271Z,42.46
2023-05-07T04:50:35.640Z,42.50
2023-05-07T04:51:12.081Z,42.24
2023-05-07T04:51:44.977Z,42.73
2023-05-07T04:52:18.514Z,42.36
2023-05-07T04:52:51.244Z,42.40
2023-05-07T04:53:26.389Z,42.74
2023-05-07T04:54:00.144Z,42.43
2023-05-07T04:54:34.001Z,42.57
2023-05-07T04:55:09.651Z,42.53
2023-05-07T04:55:47.187Z,42.79
2023-05-07T04:56:19.711Z,42.50
2023-05-07T04:56:55.648Z,42.73
2023-05-07T04:57:28.615Z,42.62
2023-05-07T04:58:02.740Z,42.69
2023-05-07T04:58:40.156Z,42.61
2023-05-07T04:59:12.811Z,42.64
2023-05-07T04:59:46.209Z,42.85
2023-05-07T05:00:20.759Z,42.34
2023-05-07T05:00:57.664Z,42.32
2023-05-07T05:01:30.166Z,42.87
2023-05-07T05:02:03.160Z,42.39
2023-05-07T05:02:38.318Z,42.36
2023-05-07T05:03:11.442Z,42.38
2023-05-07T05:03:45.562Z,42.70
2023-05-07T05:04:20.589Z,42.65
2023-05-07T05:04:53.182Z,42.64
2023-05-07T05:05:25.563Z,42.66
2023-05-07T05:06:03.209Z,42.41
2023-05-07T05:06:39.007Z,42.87
2023-05-07T05:07:12.484Z,42.70
2023-05-07T05:07:47.408Z,42.88
2023-05-07T05:08:20.048Z,42.65
2023-05-07T05:08:52.420Z,42.50
2023-05-07T05:09:27.357Z,42.51
2023-05-07T05:09:59.775Z,42.71
2023-05-07T05:10:32.110Z,42.72
2023-05-07T05:11:09.684Z,42.63
2023-05-07T05:11:42.500Z,42.75
2023-05-07T05:12:15.036Z,42.69
2023-05-07T05:12:47.365Z,42.94
2023-05-07T05:13:23.195Z,42.71
2023-05-07T05:13:55.787Z,42.50
2023-05-07T05:14:28.128Z,42.75
2023-05-07T05:15:03.071Z,42.72
2023-05-07T05:15:35.439Z,42.48
2023-05-07T05:16:08.606Z,42.95
2023-05-07T05:16:43.628Z,42.77
2023-05-07T05:17:16.475Z,42.70
2023-05-07T05:17:48.929Z,42.93
2023-05-07T05:18:24.354Z,42.47
2023-05-07T05:18:56.822Z,42.82
2023-05-07T05:19:29.901Z,42.55
2023-05-07T05:20:05.120Z,42.68
2023-05-07T05:20:37.464Z,42.90
2023-05-07T05:21:09.867Z,42.75
2023-05-07T05:21:44.936Z,42.82
2023-05-07T05:22:18.639Z,42.91
2023-05-07T05:22:51.028Z,43.01
2023-05-07T05:23:25.965Z,42.69
2023-05-07T05:23:58.408Z,42.53
2023-05-07T05:24:31.764Z,42.82
2023-05-07T05:25:05.463Z,43.02
2023-05-07T05:25:41.496Z,42.58
2023-05-07T05:26:19.807Z,42.89
2023-05-07T05:26:54.578Z,42.80
2023-05-07T05:27:29.982Z,42.57
2023-05-07T05:28:04.000Z,42.87
2023-05-07T05:28:42.392Z,42.68
2023-05-07T05:29:14.708Z,42.82
2023-05-07T05:29:48.337Z,42.60
2023-05-07T05:30:23.561Z,43.05
2023-05-07T05:30:55.964Z,42.90
2023-05-07T05:31:32.468Z,42.94
2023-05-07T05:32:05.052Z,43.01
2023-05-07T05:32:37.567Z,42.87
2023-05-07T05:33:14.843Z,42.91
2023-05-07T05:33:47.289Z,43.13
2023-05-07T05:34:20.810Z,42.96
2023-05-07T05:34:56.787Z,42.99
2023-05-07T05:35:29.143Z,42.87
2023-05-07T05:36:02.401Z,42.96
2023-05-07T05:36:37.452Z,42.97
2023-05-07T05:37:09.770Z,42.66
2023-05-07T05:37:42.360Z,42.96
2023-05-07T05:38:17.537Z,42.94
2023-05-07T05:38:50.264Z,42.86
2023-05-07T05:39:24.376Z,43.19
2023-05-07T05:39:59.536Z,43.03
2023-05-07T05:40:33.431Z,43.04
2023-05-07T05:41:06.284Z,43.29
2023-05-07T05:41:43.811Z,42.79
2023-05-07T05:42:17.414Z,43.02
2023-05-07T05:42:50.243Z,43.11
2023-05-07T05:43:27.088Z,43.08
2023-05-07T05:43:59.435Z,43.03
2023-05-07T05:44:32.283Z,43.10
2023-05-07T05:45:07.998Z,43.08
2023-05-07T05:45:41.394Z,43.04
2023-05-07T05:46:16.350Z,43.06
2023-05-07T05:46:50.991Z,43.18
2023-05-07T05:47:24.111Z,43.12
2023-05-07T05:48:01.923Z,43.08
2023-05-07T05:48:35.701Z,42.82
2023-05-07T05:49:10.169Z,43.18
2023-05-07T05:49:44.509Z,43.07
2023-05-07T05:50:23.160Z,43.10
2023-05-07T05:50:55.501Z,43.23
2023-05-07T05:51:27.854Z,42.92
2023-05-07T05:52:02.852Z,43.00
2023-05-07T05:52:36.295Z,43.33
2023-05-07T05:53:08.827Z,43.08
2023-05-07T05:53:41.179Z,42.84
2023-05-07T05:54:16.722Z,42.85
2023-05-07T05:54:49.091Z,43.01
2023-05-07T05:55:22.166Z,43.10
2023-05-07T05:55:57.153Z,42.81
2023-05-07T05:56:29.505Z,42.77
2023-05-07T05:57:05.348Z,43.27
2023-05-07T05:57:40.739Z,43.25
2023-05-07T05:58:13.217Z,43.23
2023-05-07T05:58:49.847Z,42.90
2023-05-07T05:59:25.018Z,43.04
2023-05-07T05:59:59.063Z,42.99
2023-05-07T06:00:31.513Z,43.30
2023-05-07T06:01:12.834Z,43.02
2023-05-07T06:01:45.229Z,43.02
2023-05-07T06:02:17.958Z,43.30
2023-05-07T06:02:53.140Z,43.16
2023-05-07T06:03:29.594Z,42.91
2023-05-07T06:04:05.025Z,43.06
2023-05-07T06:04:40.006Z,42.87
2023-05-07T06:05:12.707Z,42.99
2023-05-07T06:05:45.721Z,42.96
2023-05-07T06:06:21.750Z,42.77
2023-05-07T06:06:54.086Z,43.28
2023-05-07T06:07:26.836Z,43.28
2023-05-07T06:08:01.956Z,42.93
2023-05-07T06:08:38.381Z,43.11
2023-05-07T06:09:11.058Z,43.10
2023-05-07T06:09:50.531Z,43.10
2023-05-07T06:10:22.953Z,43.08
2023-05-07T06:10:55.419Z,43.11
2023-05-07T06:11:30.416Z,43.24
2023-05-07T06:12:05.644Z,43.04
2023-05-07T06:12:38.313Z,43.26
2023-05-07T06:13:13.294Z,43.31
2023-05-07T06:13:46.454Z,43.11
2023-05-07T06:14:19.820Z,43.01
2023-05-07T06:14:54.883Z,43.13
2023-05-07T06:15:27.201Z,43.13
2023-05-07T06:16:00.201Z,42.97
2023-05-07T06:16:35.263Z,42.93
2023-05-07T06:17:08.088Z,43.24
2023-05-07T06:17:40.592Z,43.25
2023-05-07T06:18:16.828Z,43.45
2023-05-07T06:18:49.382Z,43.06
2023-05-07T06:19:25.134Z,43.37
2023-05-07T06:20:02.368Z,43.44
2023-05-07T06:20:34.778Z,43.49
2023-05-07T06:21:11.507Z,43.37
2023-05-07T06:21:46.769Z,43.13
2023-05-07T06:22:19.189Z,43.35
2023-05-07T06:22:54.247Z,43.60
2023-05-07T06:23:26.994Z,43.50
2023-05-07T06:23:59.334Z,43.39
2023-05-07T06:24:34.311Z,43.46
2023-05-07T06:25:07.914Z,43.45
2023-05-07T06:25:40.260Z,43.61
2023-05-07T06:26:15.777Z,43.21
2023-05-07T06:26:52.350Z,43.20
2023-05-07T06:27:27.303Z,43.54
2023-05-07T06:28:02.441Z,43.27
2023-05-07T06:28:37.133Z,43.40
2023-05-07T06:29:14.481Z,43.31
2023-05-07T06:29:49.408Z,43.36
2023-05-07T06:30:23.589Z,43.30
2023-05-07T06:30:58.604Z,43.33
2023-05-07T06:31:32.413Z,43.18
2023-05-07T06:32:09.670Z,43.47
2023-05-07T06:32:45.127Z,43.57
2023-05-07T06:33:18.790Z,43.35
2023-05-07T06:33:51.252Z,43.25
2023-05-07T06:34:27.977Z,43.38
2023-05-07T06:35:00.349Z,43.02
2023-05-07T06:35:33.289Z,43.32
2023-05-07T06:36:10.412Z,43.51
2023-05-07T06:36:42.873Z,43.24
2023-05-07T06:37:26.094Z,43.50
2023-05-07T06:38:06.309Z,43.56
2023-05-07T06:38:41.501Z,43.59
2023-05-07T06:39:13.851Z,43.39
2023-05-07T06:39:46.214Z,43.40
2023-05-07T06:40:21.487Z,43.59
2023-05-07T06:40:57.094Z,43.06
2023-05-07T06:41:29.618Z,43.55
2023-05-07T06:42:09.131Z,43.23
2023-05-07T06:42:49.341Z,43.17
2023-05-07T06:43:33.137Z,43.37
2023-05-07T06:44:43.125Z,43.30
2023-05-07T06:45:18.478Z,43.59
2023-05-07T06:45:50.834Z,43.18
2023-05-07T06:46:25.896Z,43.66
2023-05-07T06:46:58.493Z,43.18
2023-05-07T06:47:33.497Z,43.33
2023-05-07T06:48:06.455Z,43.25
2023-05-07T06:48:46.122Z,43.40
2023-05-07T06:49:21.063Z,43.67
2023-05-07T06:49:54.988Z,43.37
2023-05-07T06:50:30.529Z,43.37
2023-05-07T06:51:06.815Z,43.52
2023-05-07T06:51:39.137Z,43.64
2023-05-07T06:52:12.489Z,43.44
2023-05-07T06:52:47.516Z,43.60
2023-05-07T06:53:19.972Z,43.54
2023-05-07T06:53:52.558Z,43.27
2023-05-07T06:54:28.408Z,43.33
2023-05-07T06:55:01.692Z,43.42
2023-05-07T06:55:33.990Z,43.20
2023-05-07T06:56:09.619Z,43.42
2023-05-07T06:56:43.055Z,43.45
2023-05-07T06:57:15.497Z,43.69
2023-05-07T06:57:53.353Z,43.70
2023-05-07T06:58:27.358Z,44.00
2023-05-07T06:59:00.797Z,43.64
2023-05-07T06:59:36.098Z,43.89
2023-05-07T07:00:11.551Z,43.80
2023-05-07T07:00:55.059Z,44.03
2023-05-07T07:01:27.992Z,43.93
2023-05-07T07:02:00.531Z,43.97
2023-05-07T07:02:35.736Z,43.93
2023-05-07T07:03:08.177Z,43.75
2023-05-07T07:03:41.159Z,44.11
2023-05-07T07:04:16.170Z,44.10
2023-05-07T07:04:50.984Z,44.05
2023-05-07T07:05:23.410Z,44.03
2023-05-07T07:05:59.112Z,43.98
2023-05-07T07:06:32.999Z,44.23
2023-05-07T07:07:10.136Z,43.74
2023-05-07T07:07:42.689Z,44.14
2023-05-07T07:08:18.318Z,44.02
2023-05-07T07:08:53.877Z,44.29
2023-05-07T07:09:26.328Z,44.23
2023-05-07T07:09:59.962Z,44.38
2023-05-07T07:10:35.399Z,44.31
2023-05-07T07:11:10.078Z,44.29
2023-05-07T07:11:42.461Z,44.03
2023-05-07T07:12:17.698Z,43.97
2023-05-07T07:12:53.987Z,43.99
2023-05-07T07:13:30.129Z,44.02
2023-05-07T07:14:02.504Z,44.09
2023-05-07T07:14:37.494Z,43.98
2023-05-07T07:15:13.730Z,44.07
2023-05-07T07:15:46.710Z,43.99
2023-05-07T07:16:19.407Z,43.78
2023-05-07T07:16:55.069Z,44.33
2023-05-07T07:17:28.813Z,44.32
2023-05-07T07:18:01.655Z,44.10
2023-05-07T07:18:37.134Z,44.27
2023-05-07T07:19:10.311Z,43.82
2023-05-07T07:19:42.682Z,44.24
2023-05-07T07:20:18.281Z,44.20
2023-05-07T07:20:51.740Z,44.21
2023-05-07T07:21:24.087Z,43.90
2023-05-07T07:21:59.538Z,43.85
2023-05-07T07:22:32.892Z,43.97
2023-05-07T07:23:08.128Z,43.70
2023-05-07T07:23:40.780Z,44.20
2023-05-07T07:24:20.334Z,43.85